createdAt,value
2024-05-09T00:37:39.560Z,3.23
2024-05-09T00:55:12.440Z,8.63
2024-05-09T01:00:26.206Z,4.90
2024-05-09T01:05:45.292Z,4.63
2024-05-09T01:10:52.711Z,6.57
2024-05-09T01:15:58.220Z,9.07
2024-05-09T01:21:06.625Z,7.77
2024-05-09T01:26:13.924Z,5.93
2024-05-09T01:31:21.819Z,8.20
2024-05-09T01:36:26.334Z,6.50
2024-05-09T01:41:34.109Z,8.53
2024-05-09T01:46:43.100Z,7.33
2024-05-09T01:51:51.809Z,5.73
2024-05-09T01:56:58.901Z,6.27
2024-05-09T02:02:06.926Z,7.00
2024-05-09T02:07:12.969Z,7.50
2024-05-09T02:12:20.150Z,7.30
2024-05-09T02:17:25.046Z,5.60
2024-05-09T02:22:31.610Z,7.70
2024-05-09T02:27:38.671Z,6.97
2024-05-09T02:32:43.684Z,8.10
2024-05-09T02:37:49.698Z,7.57
2024-05-09T02:42:57.321Z,6.20
2024-05-09T02:48:02.428Z,6.87
2024-05-09T02:53:07.884Z,12.20
2024-05-09T02:58:15.565Z,7.00
2024-05-09T03:03:20.233Z,11.00
2024-05-09T03:08:25.065Z,9.57
2024-05-09T03:13:32.167Z,9.13
2024-05-09T03:18:36.784Z,11.00
2024-05-09T03:23:43.448Z,7.37
2024-05-09T03:28:50.714Z,7.07
2024-05-09T03:33:55.343Z,8.13
2024-05-09T03:38:59.884Z,6.57
2024-05-09T03:44:07.093Z,9.60
2024-05-09T03:49:11.734Z,8.33
2024-05-09T03:54:16.485Z,7.43
2024-05-09T03:59:23.546Z,6.07
2024-05-09T04:04:28.125Z,6.17
2024-05-09T04:09:32.652Z,6.37
2024-05-09T04:14:39.867Z,11.23
2024-05-09T04:19:44.469Z,12.97
2024-05-09T04:24:49.291Z,5.87
2024-05-09T04:29:56.339Z,6.90
2024-05-09T04:35:00.914Z,7.57
2024-05-09T04:40:08.953Z,6.70
2024-05-09T04:45:18.472Z,7.20
2024-05-09T04:50:30.199Z,9.10
2024-05-09T04:55:41.083Z,6.00
2024-05-09T05:00:48.204Z,7.60
2024-05-09T05:05:52.772Z,9.07
2024-05-09T05:10:57.376Z,5.03
2024-05-09T05:16:04.968Z,6.43
2024-05-09T05:21:09.528Z,6.03
2024-05-09T05:26:14.233Z,9.80
2024-05-09T05:31:21.525Z,8.57
2024-05-09T05:36:25.996Z,7.67
2024-05-09T05:41:30.599Z,7.07
2024-05-09T05:46:37.732Z,7.03
2024-05-09T05:51:42.201Z,6.17
2024-05-09T05:56:46.828Z,8.67
2024-05-09T06:01:53.977Z,6.17
2024-05-09T06:06:58.626Z,5.13
2024-05-09T06:12:03.585Z,5.57
2024-05-09T06:17:10.888Z,7.63
2024-05-09T06:22:15.557Z,6.45
2024-05-09T06:27:20.256Z,4.78
2024-05-09T06:32:27.528Z,6.47
2024-05-09T06:37:32.228Z,10.90
2024-05-09T06:42:36.754Z,5.00
2024-05-09T06:47:43.976Z,5.10
2024-05-09T06:52:49.607Z,5.72
2024-05-09T06:57:54.143Z,10.05
2024-05-09T07:03:04.768Z,9.80
2024-05-09T07:08:10.622Z,6.65
2024-05-09T07:13:16.181Z,6.70
2024-05-09T07:18:23.494Z,5.90
2024-05-09T07:23:28.284Z,6.20
2024-05-09T07:28:32.823Z,5.75
2024-05-09T07:33:40.070Z,6.38
2024-05-09T07:38:44.689Z,7.15
2024-05-09T07:43:49.209Z,3.97
2024-05-09T07:54:18.619Z,3.92
2024-05-09T07:59:26.090Z,4.30
2024-05-09T08:04:39.294Z,4.82
2024-05-09T08:09:44.023Z,5.00
2024-05-09T08:14:48.516Z,4.13
2024-05-09T08:19:56.161Z,5.10
2024-05-09T08:25:00.899Z,5.40
2024-05-09T08:30:07.901Z,5.82
2024-05-09T08:35:15.357Z,7.85
2024-05-09T08:40:27.985Z,3.53
2024-05-09T08:45:44.255Z,4.72
2024-05-09T08:50:55.158Z,2.88
2024-05-09T08:56:03.767Z,2.92
2024-05-09T09:01:09.334Z,5.35
2024-05-09T09:06:23.423Z,2.20
2024-05-09T09:11:27.972Z,5.15
2024-05-09T09:16:36.396Z,3.70
2024-05-09T09:21:43.619Z,3.25
2024-05-09T09:26:48.235Z,4.85
2024-05-09T09:32:00.934Z,3.42
2024-05-09T09:37:09.964Z,4.47
2024-05-09T09:42:19.041Z,3.42
2024-05-09T09:47:24.377Z,4.13
2024-05-09T09:52:31.666Z,4.72
2024-05-09T09:57:37.984Z,6.82
2024-05-09T10:02:42.851Z,3.33
2024-05-09T10:07:50.354Z,3.58
2024-05-09T10:13:00.048Z,2.13
2024-05-09T10:18:08.697Z,2.65
2024-05-09T10:23:33.556Z,4.28
2024-05-09T10:28:39.302Z,3.15
2024-05-09T10:33:50.218Z,2.50
2024-05-09T10:38:58.491Z,2.33
2024-05-09T10:44:02.938Z,2.72
2024-05-09T10:49:08.137Z,2.88
2024-05-09T10:54:15.309Z,2.78
2024-05-09T10:59:19.781Z,2.97
2024-05-09T11:04:24.443Z,2.83
2024-05-09T11:09:31.628Z,3.25
2024-05-09T11:14:39.269Z,3.35
2024-05-09T11:19:47.912Z,2.25
2024-05-09T11:24:55.315Z,2.47
2024-05-09T11:30:01.734Z,5.30
2024-05-09T11:35:06.511Z,3.17
2024-05-09T11:40:21.346Z,4.18
2024-05-09T11:45:30.058Z,2.13
2024-05-09T11:50:36.106Z,3.40
2024-05-09T11:55:43.543Z,2.70
2024-05-09T12:00:48.079Z,3.35
2024-05-09T12:05:52.723Z,2.42
2024-05-09T12:11:00.232Z,2.83
2024-05-09T12:16:04.868Z,5.28
2024-05-09T12:21:09.369Z,2.95
2024-05-09T12:26:16.568Z,2.58
2024-05-09T12:31:21.090Z,2.70
2024-05-09T12:36:25.593Z,2.35
2024-05-09T12:41:32.636Z,2.60
2024-05-09T12:46:37.187Z,2.13
2024-05-09T12:51:41.692Z,4.45
2024-05-09T12:56:48.714Z,5.65
2024-05-09T13:01:53.227Z,2.53
2024-05-09T13:06:57.834Z,4.03
2024-05-09T13:12:04.869Z,1.95
2024-05-09T13:17:09.478Z,4.93
2024-05-09T13:22:14.020Z,3.42
2024-05-09T13:27:21.301Z,2.55
2024-05-09T13:32:25.998Z,3.05
2024-05-09T13:37:35.551Z,6.18
2024-05-09T13:42:42.782Z,3.80
2024-05-09T13:47:48.021Z,2.58
2024-05-09T13:52:52.931Z,3.20
2024-05-09T13:58:00.276Z,2.70
2024-05-09T14:03:05.025Z,1.67
2024-05-09T14:08:10.175Z,1.85
2024-05-09T14:13:17.505Z,6.38
2024-05-09T14:18:22.434Z,3.25
2024-05-09T14:23:26.891Z,4.15
2024-05-09T14:28:33.968Z,1.70
2024-05-09T14:33:39.015Z,5.38
2024-05-09T14:38:43.627Z,1.48
2024-05-09T14:43:50.683Z,3.88
2024-05-09T14:48:55.374Z,3.33
2024-05-09T14:53:59.939Z,4.07
2024-05-09T14:59:07.555Z,5.57
2024-05-09T15:04:12.169Z,2.70
2024-05-09T15:09:16.893Z,2.25
2024-05-09T15:14:23.916Z,7.35
2024-05-09T15:19:28.646Z,5.00
2024-05-09T15:24:33.283Z,2.95
2024-05-09T15:29:40.591Z,5.57
2024-05-09T15:34:46.156Z,2.58
2024-05-09T15:39:50.834Z,4.28
2024-05-09T15:44:57.907Z,2.42
2024-05-09T15:50:02.642Z,4.45
2024-05-09T15:55:10.020Z,2.22
2024-05-09T16:00:25.083Z,3.42
2024-05-09T16:05:38.793Z,1.50
2024-05-09T16:10:45.983Z,3.33
2024-05-09T16:15:54.137Z,2.33
2024-05-09T16:21:00.292Z,4.78
2024-05-09T16:26:05.198Z,4.60
2024-05-09T16:31:12.388Z,3.75
2024-05-09T16:36:16.963Z,2.83
2024-05-09T16:41:21.846Z,2.40
2024-05-09T16:46:29.774Z,6.90
2024-05-09T16:51:35.046Z,3.47
2024-05-09T16:56:40.007Z,5.53
2024-05-09T17:01:47.608Z,3.35
2024-05-09T17:06:52.293Z,4.22
2024-05-09T17:11:56.771Z,3.05
2024-05-09T17:17:04.270Z,3.70
2024-05-09T17:22:09.063Z,3.30
2024-05-09T17:27:13.767Z,3.97
2024-05-09T17:32:20.830Z,3.22
2024-05-09T17:37:25.566Z,4.25
2024-05-09T17:42:30.172Z,4.13
2024-05-09T17:47:39.206Z,4.75
2024-05-09T17:52:44.288Z,2.22
2024-05-09T17:57:49.004Z,6.38
2024-05-09T18:02:56.872Z,5.47
2024-05-09T18:08:01.406Z,3.65
2024-05-09T18:13:06.519Z,2.78
2024-05-09T18:18:14.678Z,2.75
2024-05-09T18:23:23.314Z,5.45
2024-05-09T18:28:31.143Z,4.70
2024-05-09T18:33:38.583Z,5.45
2024-05-09T18:38:43.243Z,3.53
2024-05-09T18:43:50.496Z,3.38
2024-05-09T18:48:58.168Z,3.58
2024-05-09T18:54:03.430Z,5.38
2024-05-09T18:59:08.388Z,8.20
2024-05-09T19:04:18.313Z,4.63
2024-05-09T19:09:23.001Z,4.90
2024-05-09T19:14:27.487Z,7.97
2024-05-09T19:19:34.840Z,8.93
2024-05-09T19:24:39.492Z,16.17
2024-05-09T19:29:44.017Z,12.63
2024-05-09T19:34:51.172Z,10.05
2024-05-09T19:39:55.794Z,12.60
2024-05-09T19:45:00.488Z,12.73
2024-05-09T19:50:11.223Z,10.25
2024-05-09T19:55:20.859Z,16.05
2024-05-09T20:00:32.655Z,10.63
2024-05-09T20:05:44.715Z,15.43
2024-05-09T20:10:49.620Z,11.77
2024-05-09T20:15:54.717Z,12.70
2024-05-09T20:21:02.696Z,11.82
2024-05-09T20:26:09.989Z,13.15
2024-05-09T20:31:22.385Z,14.98
2024-05-09T20:36:29.701Z,11.10
2024-05-09T20:41:36.591Z,17.13
2024-05-09T20:46:41.714Z,16.58
2024-05-09T20:51:48.915Z,19.17
2024-05-09T20:56:53.493Z,21.70
2024-05-09T21:01:58.556Z,17.17
2024-05-09T21:07:06.130Z,14.57
2024-05-09T21:12:11.331Z,14.23
2024-05-09T21:17:16.002Z,15.13
2024-05-09T21:22:25.221Z,16.10
2024-05-09T21:27:29.762Z,15.85
2024-05-09T21:32:34.335Z,14.27
2024-05-09T21:37:41.396Z,13.50
2024-05-09T21:42:45.974Z,14.50
2024-05-09T21:47:53.115Z,12.38
2024-05-09T21:53:01.677Z,12.10
2024-05-09T21:58:06.323Z,12.68
2024-05-09T22:03:12.296Z,13.43
2024-05-09T22:08:19.895Z,13.98
2024-05-09T22:13:24.630Z,11.43
2024-05-09T22:18:29.393Z,16.63
2024-05-09T22:23:36.586Z,14.38
2024-05-09T22:28:41.160Z,12.85
2024-05-09T22:33:47.949Z,14.73
2024-05-09T22:38:55.702Z,18.55
2024-05-09T22:44:01.907Z,16.92
2024-05-09T22:49:06.946Z,13.55
2024-05-09T22:54:14.221Z,12.95
2024-05-09T22:59:19.738Z,13.43
2024-05-09T23:04:24.378Z,12.98
2024-05-09T23:09:31.784Z,11.68
2024-05-09T23:14:36.382Z,13.70
2024-05-09T23:19:40.944Z,12.48
2024-05-09T23:24:48.149Z,8.85
2024-05-09T23:29:53.366Z,9.27
2024-05-09T23:34:58.092Z,12.70
2024-05-09T23:40:15.114Z,11.38
2024-05-09T23:45:23.003Z,10.30
2024-05-09T23:50:34.288Z,12.15
2024-05-09T23:55:44.473Z,9.23
